Time;durP1;ratioP1;P1;durP2;ratioP2;P2;SDS_P1;SDS_P2;PMS_P1;PMS_P2;Temp;Humidity;BMP_temperature;BMP_pressure;BME280_temperature;BME280_humidity;BME280_pressure;Samples;Min_cycle;Max_cycle;Signal;HPM_P1;HPM_P2
2023/01/18 00:00:36;;;;;;;3.35;3.03;;;-1.60;99.90;;;;;;7391208;19;20308;-85
2023/01/18 00:03:03;;;;;;;2.65;2.42;;;-1.70;99.90;;;;;;7392778;19;20397;-82
2023/01/18 00:05:29;;;;;;;3.90;2.70;;;-1.70;99.90;;;;;;7392672;19;20375;-82
2023/01/18 00:07:54;;;;;;;4.03;3.03;;;-1.60;99.90;;;;;;7392303;19;20337;-79
2023/01/18 00:10:21;;;;;;;3.70;2.63;;;-1.70;99.90;;;;;;7394660;19;20297;-81
2023/01/18 00:12:49;;;;;;;3.63;2.85;;;-1.70;99.90;;;;;;7393566;19;20308;-81
2023/01/18 00:15:14;;;;;;;5.23;2.87;;;-1.70;99.90;;;;;;7392260;19;20339;-81
2023/01/18 00:17:52;;;;;;;3.40;2.80;;;-1.70;99.90;;;;;;7392481;19;20329;-81
2023/01/18 00:20:23;;;;;;;4.38;2.95;;;-1.70;99.90;;;;;;7390433;19;20296;-79
2023/01/18 00:22:49;;;;;;;3.22;2.60;;;-1.80;99.90;;;;;;7391666;19;20329;-79
2023/01/18 00:25:15;;;;;;;3.17;2.43;;;-1.70;99.90;;;;;;7390571;19;20297;-79
2023/01/18 00:27:47;;;;;;;4.20;3.07;;;-1.70;99.90;;;;;;7389596;19;20854;-82
2023/01/18 00:30:13;;;;;;;4.90;3.42;;;-1.70;99.90;;;;;;7388197;19;20318;-82
2023/01/18 00:32:39;;;;;;;4.60;3.20;;;-1.70;99.90;;;;;;7390743;19;20331;-82
2023/01/18 00:35:06;;;;;;;5.00;3.10;;;-1.80;99.90;;;;;;7389718;19;20829;-80
2023/01/18 00:37:34;;;;;;;4.80;3.45;;;-1.80;99.90;;;;;;7392250;19;20404;-79
2023/01/18 00:39:59;;;;;;;5.32;3.65;;;-1.80;99.90;;;;;;7347550;19;20415;-80
2023/01/18 00:45:09;;;;;;;3.90;3.50;;;-1.60;99.90;;;;;;7391755;19;20309;-80
2023/01/18 00:47:35;;;;;;;4.60;3.60;;;-1.50;99.90;;;;;;7389151;19;20305;-81
2023/01/18 00:50:01;;;;;;;4.87;3.57;;;-1.50;99.90;;;;;;7390777;19;20316;-79
2023/01/18 00:52:27;;;;;;;4.33;3.00;;;-1.60;99.90;;;;;;7369996;19;20356;-79
2023/01/18 00:54:52;;;;;;;4.85;3.15;;;-1.50;99.90;;;;;;7390133;19;20309;-81
2023/01/18 00:57:18;;;;;;;4.83;3.60;;;-1.50;99.90;;;;;;7368366;19;20674;-81
2023/01/18 00:59:47;;;;;;;3.53;3.22;;;-1.40;99.90;;;;;;7368635;19;20396;-78
2023/01/18 01:02:13;;;;;;;5.65;4.38;;;-1.30;99.90;;;;;;7384770;19;20317;-82
2023/01/18 01:07:23;;;;;;;10.68;6.07;;;-1.30;99.90;;;;;;7285007;19;2004245;-85
2023/01/18 01:09:49;;;;;;;10.60;5.97;;;-1.30;99.90;;;;;;7369149;19;20337;-79
2023/01/18 01:26:09;;;;;;;7.75;5.47;;;-1.20;99.90;;;;;;7287477;19;2004228;-83
2023/01/18 01:28:38;;;;;;;9.90;5.97;;;-1.20;99.90;;;;;;7389357;19;20338;-83
2023/01/18 01:31:05;;;;;;;10.57;6.43;;;-1.10;99.90;;;;;;7366844;19;20319;-79
2023/01/18 01:33:30;;;;;;;12.17;6.63;;;-1.00;99.90;;;;;;7367776;19;20328;-80
2023/01/18 01:36:09;;;;;;;10.83;6.40;;;-1.10;99.90;;;;;;7388981;19;20305;-79
2023/01/18 01:38:35;;;;;;;9.80;6.30;;;-1.10;99.90;;;;;;7385323;19;20503;-84
2023/01/18 01:41:05;;;;;;;10.33;6.77;;;-1.10;99.90;;;;;;7388706;19;20395;-82
2023/01/18 01:43:45;;;;;;;7.07;5.70;;;-1.00;99.90;;;;;;7389705;19;20316;-83
2023/01/18 01:46:49;;;;;;;7.97;5.90;;;-1.00;99.90;;;;;;7368550;19;20328;-83
2023/01/18 01:49:26;;;;;;;9.05;5.97;;;-1.00;99.90;;;;;;7287082;19;2004282;-83
2023/01/18 01:52:09;;;;;;;9.82;6.30;;;-1.00;99.90;;;;;;7286869;19;2004291;-78
2023/01/18 01:54:47;;;;;;;11.73;6.82;;;-0.90;99.90;;;;;;7388108;19;20330;-79
2023/01/18 01:57:29;;;;;;;9.18;6.25;;;-0.90;99.90;;;;;;7388849;19;20391;-79
2023/01/18 02:00:00;;;;;;;7.97;6.10;;;-0.90;99.90;;;;;;7282853;19;2004273;-80
2023/01/18 02:02:28;;;;;;;11.18;7.00;;;-0.90;99.90;;;;;;7387754;19;20345;-79
2023/01/18 02:04:57;;;;;;;9.98;6.85;;;-0.90;99.90;;;;;;7390536;19;20316;-80
2023/01/18 02:07:25;;;;;;;10.82;6.80;;;-0.90;99.90;;;;;;7383452;19;20308;-83
2023/01/18 02:10:01;;;;;;;10.27;6.75;;;-0.90;99.90;;;;;;7389706;19;20361;-83
2023/01/18 02:12:27;;;;;;;11.55;6.68;;;-0.80;99.90;;;;;;7387836;19;20304;-82
2023/01/18 02:14:59;;;;;;;10.95;7.00;;;-0.80;99.90;;;;;;7386877;19;20858;-79
2023/01/18 02:17:53;;;;;;;11.73;7.15;;;-0.80;99.90;;;;;;7368296;19;20391;-81
2023/01/18 02:20:46;;;;;;;10.88;7.00;;;-0.80;99.90;;;;;;7388374;19;20285;-80
2023/01/18 02:23:37;;;;;;;10.27;6.13;;;-0.70;99.90;;;;;;7281870;19;2008320;-79
2023/01/18 02:26:43;;;;;;;8.07;6.07;;;-0.60;99.90;;;;;;7264850;19;2004271;-84
2023/01/18 02:29:28;;;;;;;11.83;6.60;;;-0.60;99.90;;;;;;7265515;19;2004313;-83
2023/01/18 02:32:33;;;;;;;12.60;7.28;;;-0.60;99.90;;;;;;7283572;19;2004372;-82
2023/01/18 02:35:16;;;;;;;9.30;6.22;;;-0.50;99.90;;;;;;7264131;19;2004367;-80
2023/01/18 02:38:15;;;;;;;8.68;6.05;;;-0.50;99.90;;;;;;7366779;19;20428;-80
2023/01/18 02:41:02;;;;;;;9.10;6.50;;;-0.50;99.90;;;;;;7286967;19;2004285;-81
2023/01/18 02:46:32;;;;;;;8.63;6.20;;;-0.50;99.90;;;;;;7387423;19;20281;-84
2023/01/18 02:49:09;;;;;;;9.02;5.88;;;-0.50;99.90;;;;;;7286378;19;2004198;-81
2023/01/18 02:51:45;;;;;;;9.55;6.03;;;-0.40;99.90;;;;;;7367330;19;20304;-80
2023/01/18 02:54:23;;;;;;;11.70;6.88;;;-0.30;99.90;;;;;;7390325;19;20322;-79
2023/01/18 02:56:50;;;;;;;8.77;6.38;;;-0.30;99.90;;;;;;7392101;19;20390;-83
2023/01/18 02:59:28;;;;;;;10.70;7.20;;;-0.30;99.90;;;;;;7387608;19;20352;-85
2023/01/18 03:02:00;;;;;;;9.30;6.90;;;-0.30;99.90;;;;;;7283114;19;2004421;-80
2023/01/18 03:04:53;;;;;;;10.23;7.17;;;-0.30;99.90;;;;;;7367887;19;20842;-81
2023/01/18 03:07:42;;;;;;;12.60;7.60;;;-0.30;99.90;;;;;;7389853;19;20312;-79
2023/01/18 03:10:09;;;;;;;11.90;7.35;;;-0.30;99.90;;;;;;7285130;19;2004442;-80
2023/01/18 03:13:10;;;;;;;15.05;7.43;;;-0.40;99.90;;;;;;7392465;19;20328;-78
2023/01/18 03:15:52;;;;;;;10.87;6.77;;;-0.40;99.90;;;;;;7288899;19;2004259;-80
2023/01/18 03:18:59;;;;;;;11.57;7.23;;;-0.40;99.90;;;;;;7391487;19;20862;-80
2023/01/18 03:21:44;;;;;;;10.30;6.82;;;-0.40;99.90;;;;;;7182351;19;2004377;-82
2023/01/18 03:24:11;;;;;;;10.07;6.35;;;-0.30;99.90;;;;;;7388415;19;20329;-81
2023/01/18 03:26:40;;;;;;;9.82;6.43;;;-0.30;99.90;;;;;;7389357;19;20321;-82
2023/01/18 03:35:02;;;;;;;12.05;7.82;;;-0.30;99.90;;;;;;7289723;19;2004348;-82
2023/01/18 03:37:38;;;;;;;10.10;6.60;;;-0.30;99.90;;;;;;7392244;19;20304;-81
2023/01/18 03:40:14;;;;;;;10.98;7.45;;;-0.30;99.90;;;;;;7389608;19;20400;-82
2023/01/18 03:43:01;;;;;;;13.23;7.20;;;-0.30;99.90;;;;;;7390268;19;20344;-85
2023/01/18 03:45:32;;;;;;;10.93;7.28;;;-0.30;99.90;;;;;;7285377;19;2004331;-81
2023/01/18 03:48:02;;;;;;;12.23;6.97;;;-0.20;99.90;;;;;;7390355;19;20304;-87
2023/01/18 03:50:34;;;;;;;11.73;7.80;;;-0.20;99.90;;;;;;7373137;19;20411;-81
2023/01/18 03:53:03;;;;;;;11.18;7.00;;;-0.20;99.90;;;;;;7393026;19;20309;-81
2023/01/18 03:55:52;;;;;;;8.15;5.80;;;-0.20;99.90;;;;;;7392389;19;21026;-83
2023/01/18 03:58:23;;;;;;;10.30;6.67;;;-0.10;99.90;;;;;;7392632;19;20308;-83
2023/01/18 04:00:51;;;;;;;9.83;6.73;;;-0.10;99.90;;;;;;7393678;19;20308;-80
2023/01/18 04:03:18;;;;;;;11.40;6.18;;;-0.10;99.90;;;;;;7390162;19;20332;-81
2023/01/18 04:05:43;;;;;;;12.18;7.55;;;0.00;99.90;;;;;;7393142;19;20296;-78
2023/01/18 04:08:09;;;;;;;10.13;6.80;;;0.00;99.90;;;;;;7395484;19;20304;-80
2023/01/18 04:10:37;;;;;;;10.93;6.53;;;0.00;99.90;;;;;;7393204;19;20326;-80
2023/01/18 04:13:02;;;;;;;9.95;6.97;;;0.00;99.90;;;;;;7390487;19;20316;-80
2023/01/18 04:15:28;;;;;;;10.43;7.10;;;-0.10;99.90;;;;;;7370796;19;20361;-81
2023/01/18 04:17:54;;;;;;;11.18;7.05;;;0.00;99.90;;;;;;7368599;19;20320;-86
2023/01/18 04:20:30;;;;;;;10.07;6.80;;;0.10;99.90;;;;;;7384551;19;20317;-85
2023/01/18 04:22:56;;;;;;;8.30;5.80;;;0.00;99.90;;;;;;7282954;19;2004213;-87
2023/01/18 04:25:23;;;;;;;11.23;7.00;;;0.00;99.90;;;;;;7383433;19;20327;-88
2023/01/18 04:27:50;;;;;;;11.43;6.90;;;0.10;99.90;;;;;;7385797;19;20340;-81
2023/01/18 04:30:16;;;;;;;10.67;6.77;;;0.00;99.90;;;;;;7382623;19;20301;-83
2023/01/18 04:32:44;;;;;;;10.27;6.53;;;0.00;99.90;;;;;;7382261;19;20695;-85
2023/01/18 04:35:12;;;;;;;8.23;6.13;;;0.10;99.90;;;;;;7378279;19;20304;-81
2023/01/18 04:37:38;;;;;;;9.68;6.45;;;0.10;99.90;;;;;;7369387;19;20331;-83
2023/01/18 04:40:12;;;;;;;9.10;5.85;;;0.10;99.90;;;;;;7392468;19;20356;-86
2023/01/18 04:42:54;;;;;;;7.40;5.35;;;0.20;99.90;;;;;;7393529;19;20316;-84
2023/01/18 04:45:54;;;;;;;10.95;6.60;;;0.20;99.90;;;;;;7385588;19;20656;-80
2023/01/18 04:48:23;;;;;;;9.73;6.60;;;0.20;99.90;;;;;;7291172;19;2004207;-84
2023/01/18 04:50:50;;;;;;;12.70;6.90;;;0.20;99.90;;;;;;7392235;19;21151;-84
2023/01/18 04:53:26;;;;;;;9.33;6.57;;;0.20;99.90;;;;;;7393719;19;20352;-80
2023/01/18 04:55:51;;;;;;;9.75;6.63;;;0.20;99.90;;;;;;7392937;19;20321;-83
2023/01/18 04:58:17;;;;;;;9.30;6.17;;;0.30;99.90;;;;;;7391210;19;20293;-81
2023/01/18 05:00:43;;;;;;;9.73;6.67;;;0.30;99.90;;;;;;7397465;19;20693;-82
2023/01/18 05:03:10;;;;;;;9.90;6.53;;;0.30;99.90;;;;;;7400979;19;20383;-84
2023/01/18 05:05:43;;;;;;;11.77;7.30;;;0.40;99.90;;;;;;7396061;19;20412;-84
2023/01/18 05:08:24;;;;;;;9.50;7.10;;;0.40;99.90;;;;;;7397626;19;20324;-81
2023/01/18 05:10:58;;;;;;;6.67;5.77;;;0.30;99.90;;;;;;7308860;19;2004577;-90
2023/01/18 05:13:24;;;;;;;8.93;6.30;;;0.40;99.90;;;;;;7403118;19;20328;-83
2023/01/18 05:15:50;;;;;;;11.50;6.88;;;0.30;99.90;;;;;;7404844;19;20326;-81
2023/01/18 05:18:16;;;;;;;10.23;6.65;;;0.40;99.90;;;;;;7408560;19;20304;-80
2023/01/18 05:20:42;;;;;;;7.17;5.37;;;0.40;99.90;;;;;;7402860;19;20305;-84
2023/01/18 05:23:14;;;;;;;10.07;6.75;;;0.30;99.90;;;;;;7398736;19;20317;-81
2023/01/18 05:25:40;;;;;;;7.70;6.07;;;0.40;99.90;;;;;;7361903;19;20358;-92
2023/01/18 05:28:06;;;;;;;11.37;6.50;;;0.30;99.90;;;;;;7400717;19;20332;-84
2023/01/18 05:40:57;;;;;;;8.75;6.10;;;0.40;99.90;;;;;;7404277;19;20304;-83
2023/01/18 05:43:25;;;;;;;7.40;5.97;;;0.50;99.90;;;;;;7411796;19;20300;-85
2023/01/18 05:45:53;;;;;;;6.47;5.20;;;0.50;99.90;;;;;;7420608;19;20336;-84
2023/01/18 05:48:23;;;;;;;9.17;5.53;;;0.60;99.90;;;;;;7419431;19;20304;-86
2023/01/18 05:50:52;;;;;;;10.20;6.32;;;0.60;99.90;;;;;;7410752;19;20297;-84
2023/01/18 05:53:21;;;;;;;8.98;6.63;;;0.70;99.90;;;;;;7398810;19;20860;-83
2023/01/18 05:55:59;;;;;;;8.88;5.43;;;0.60;99.90;;;;;;7401248;19;20376;-84
2023/01/18 05:58:25;;;;;;;9.02;6.28;;;0.60;99.90;;;;;;7285223;19;2004404;-80
2023/01/18 06:00:50;;;;;;;8.75;5.65;;;0.70;99.90;;;;;;7386619;19;20309;-85
2023/01/18 06:03:16;;;;;;;8.50;6.23;;;0.60;99.90;;;;;;7389165;19;20308;-79
2023/01/18 06:05:42;;;;;;;8.48;5.82;;;0.60;99.90;;;;;;7387318;19;20345;-79
2023/01/18 06:08:07;;;;;;;9.40;6.10;;;0.60;99.90;;;;;;7366282;19;20372;-80
2023/01/18 06:10:33;;;;;;;8.38;6.22;;;0.70;99.90;;;;;;7387863;19;20830;-86
2023/01/18 06:12:59;;;;;;;7.30;5.63;;;0.80;99.90;;;;;;7387067;19;20698;-79
2023/01/18 06:15:24;;;;;;;10.20;5.73;;;0.60;99.90;;;;;;7389203;19;20312;-79
2023/01/18 06:17:50;;;;;;;8.98;6.05;;;0.70;99.90;;;;;;7389606;19;20649;-80
2023/01/18 06:20:16;;;;;;;11.33;6.97;;;0.70;99.90;;;;;;7388595;19;20320;-79
2023/01/18 06:22:41;;;;;;;7.93;5.30;;;0.70;99.90;;;;;;7388224;19;20330;-83
2023/01/18 06:25:08;;;;;;;8.67;5.93;;;0.70;99.90;;;;;;7388049;19;20364;-80
2023/01/18 06:27:34;;;;;;;9.10;5.87;;;0.80;99.90;;;;;;7386735;19;20305;-80
2023/01/18 06:29:59;;;;;;;10.93;7.83;;;0.80;99.90;;;;;;7388513;19;20312;-81
2023/01/18 06:32:25;;;;;;;10.07;7.00;;;0.90;99.90;;;;;;7387875;19;20313;-81
2023/01/18 06:34:51;;;;;;;10.87;6.93;;;0.90;99.90;;;;;;7389385;19;20289;-78
2023/01/18 06:37:16;;;;;;;11.73;7.40;;;0.80;99.90;;;;;;7388919;19;20297;-79
2023/01/18 06:39:43;;;;;;;12.70;7.60;;;0.80;99.90;;;;;;7389126;19;20321;-82
2023/01/18 06:42:08;;;;;;;10.85;6.88;;;0.90;99.90;;;;;;7388445;19;20308;-80
2023/01/18 06:44:34;;;;;;;10.90;7.80;;;0.70;99.90;;;;;;7386565;19;20315;-78
2023/01/18 06:47:09;;;;;;;11.95;7.45;;;0.80;99.90;;;;;;7388289;19;20845;-79
2023/01/18 06:49:34;;;;;;;11.57;7.80;;;0.70;99.90;;;;;;7391481;19;20305;-85
2023/01/18 06:52:00;;;;;;;9.88;6.43;;;0.70;99.90;;;;;;7390538;19;20977;-81
2023/01/18 06:54:26;;;;;;;9.13;6.28;;;0.80;99.90;;;;;;7388334;19;20297;-81
2023/01/18 06:56:52;;;;;;;11.97;7.40;;;0.70;99.90;;;;;;7389557;19;20379;-78
2023/01/18 06:59:19;;;;;;;10.63;6.70;;;0.70;99.90;;;;;;7386448;19;20305;-80
2023/01/18 07:01:45;;;;;;;11.65;6.35;;;0.80;99.90;;;;;;7386931;19;20308;-80
2023/01/18 07:04:11;;;;;;;13.73;7.63;;;0.80;99.90;;;;;;7387709;19;20364;-79
2023/01/18 07:06:37;;;;;;;10.15;6.38;;;0.80;99.90;;;;;;7387949;19;20367;-81
2023/01/18 07:09:06;;;;;;;9.63;6.90;;;0.80;99.90;;;;;;7386797;19;20305;-80
2023/01/18 07:11:31;;;;;;;10.10;6.82;;;0.80;99.90;;;;;;7386494;19;20316;-79
2023/01/18 07:13:57;;;;;;;10.37;7.10;;;0.80;99.90;;;;;;7386841;19;20339;-80
2023/01/18 07:16:28;;;;;;;9.38;6.30;;;0.80;99.90;;;;;;7387763;19;20325;-83
2023/01/18 07:18:54;;;;;;;9.05;6.47;;;0.80;99.90;;;;;;7285057;19;2004234;-80
2023/01/18 07:21:28;;;;;;;11.33;7.67;;;0.90;99.90;;;;;;7386252;19;20312;-80
2023/01/18 07:23:53;;;;;;;9.52;6.97;;;0.90;99.90;;;;;;7282960;19;2004365;-83
2023/01/18 07:26:19;;;;;;;12.70;7.00;;;0.90;99.90;;;;;;7386668;19;20648;-81
2023/01/18 07:28:51;;;;;;;10.68;6.80;;;0.90;99.90;;;;;;7385437;19;20304;-79
2023/01/18 07:31:17;;;;;;;8.75;6.60;;;1.00;99.90;;;;;;7383904;19;20658;-80
2023/01/18 07:33:42;;;;;;;9.10;6.73;;;0.90;99.90;;;;;;7384950;19;20305;-79
2023/01/18 07:36:09;;;;;;;8.13;6.20;;;0.90;99.90;;;;;;7385136;19;20309;-79
2023/01/18 07:38:35;;;;;;;10.23;6.47;;;0.90;99.90;;;;;;7383781;19;20331;-80
2023/01/18 07:41:07;;;;;;;9.40;6.63;;;0.90;99.90;;;;;;7384056;19;20842;-79
2023/01/18 07:43:32;;;;;;;8.68;6.60;;;0.90;99.90;;;;;;7383278;19;20350;-79
2023/01/18 07:45:58;;;;;;;9.73;6.75;;;1.00;99.90;;;;;;7382930;19;20841;-80
2023/01/18 07:48:25;;;;;;;10.00;6.53;;;1.00;99.90;;;;;;7382772;19;20328;-83
2023/01/18 07:50:58;;;;;;;12.95;6.97;;;1.00;99.90;;;;;;7384624;19;20634;-81
2023/01/18 07:53:24;;;;;;;10.30;6.93;;;1.00;99.90;;;;;;7280538;19;2004337;-87
2023/01/18 07:55:49;;;;;;;13.15;7.43;;;1.20;99.90;;;;;;7385486;19;20305;-80
2023/01/18 07:58:16;;;;;;;9.07;6.60;;;1.00;99.90;;;;;;7383034;19;20300;-79
2023/01/18 08:00:42;;;;;;;10.85;7.35;;;1.00;99.90;;;;;;7383212;19;20305;-78
2023/01/18 08:03:13;;;;;;;9.63;6.87;;;1.10;99.90;;;;;;7383104;19;20355;-79
2023/01/18 08:05:39;;;;;;;11.30;8.13;;;1.10;99.90;;;;;;7383139;19;20337;-82
2023/01/18 08:08:13;;;;;;;8.63;6.43;;;1.10;99.90;;;;;;7382762;19;20313;-80
2023/01/18 08:10:39;;;;;;;9.63;6.57;;;1.20;99.90;;;;;;7385344;19;20304;-78
2023/01/18 08:13:13;;;;;;;8.93;6.70;;;1.20;99.90;;;;;;7389588;19;20743;-81
2023/01/18 08:15:39;;;;;;;11.30;7.57;;;1.20;99.90;;;;;;7389444;19;20324;-82
2023/01/18 08:18:05;;;;;;;12.20;6.83;;;1.40;99.90;;;;;;7390117;19;20980;-80
2023/01/18 08:20:31;;;;;;;11.05;7.10;;;1.40;99.90;;;;;;7389898;19;20317;-79
2023/01/18 08:23:04;;;;;;;9.90;7.25;;;1.40;99.90;;;;;;7388496;19;20328;-78
2023/01/18 08:25:32;;;;;;;9.50;6.70;;;1.40;99.90;;;;;;7390606;19;20376;-80
2023/01/18 08:27:58;;;;;;;11.55;6.95;;;1.40;99.90;;;;;;7389988;19;20304;-84
2023/01/18 08:30:29;;;;;;;9.70;6.22;;;1.50;99.90;;;;;;7389393;19;20888;-80
2023/01/18 08:32:56;;;;;;;9.32;6.43;;;1.50;99.90;;;;;;7389330;19;20309;-80
2023/01/18 08:35:25;;;;;;;8.43;5.75;;;1.50;99.90;;;;;;7390631;19;20344;-80
2023/01/18 08:37:51;;;;;;;7.63;5.20;;;1.50;99.90;;;;;;7388522;19;20395;-77
2023/01/18 08:40:17;;;;;;;7.80;5.00;;;1.60;99.90;;;;;;7388741;19;20328;-80
2023/01/18 08:42:44;;;;;;;8.65;5.05;;;1.50;99.90;;;;;;7388123;19;20307;-79
2023/01/18 08:45:10;;;;;;;8.50;5.30;;;1.50;99.90;;;;;;7389423;19;20317;-82
2023/01/18 08:47:35;;;;;;;5.80;4.43;;;1.50;99.90;;;;;;7390211;19;20657;-79
2023/01/18 08:50:01;;;;;;;6.40;4.63;;;1.40;99.90;;;;;;7389531;19;20636;-80
2023/01/18 08:52:26;;;;;;;7.43;5.22;;;1.50;99.90;;;;;;7388095;19;20369;-79
2023/01/18 08:54:52;;;;;;;6.80;4.83;;;1.50;99.90;;;;;;7390990;19;20327;-81
2023/01/18 08:57:18;;;;;;;10.13;6.38;;;1.60;99.90;;;;;;7389856;19;20323;-80
2023/01/18 08:59:43;;;;;;;8.23;5.40;;;1.40;99.90;;;;;;7389343;19;20345;-79
2023/01/18 09:02:12;;;;;;;7.05;5.43;;;1.40;99.90;;;;;;7387390;19;20739;-82
2023/01/18 09:04:37;;;;;;;10.07;6.03;;;1.40;99.90;;;;;;7388167;19;20313;-84
2023/01/18 09:07:03;;;;;;;10.90;6.20;;;1.40;99.90;;;;;;7387554;19;20926;-80
2023/01/18 09:09:28;;;;;;;11.27;6.05;;;1.30;99.90;;;;;;7387401;19;20882;-78
2023/01/18 09:11:57;;;;;;;8.50;5.60;;;1.30;99.90;;;;;;7387225;19;20297;-82
2023/01/18 09:14:22;;;;;;;7.87;5.40;;;1.30;99.90;;;;;;7390064;19;20301;-78
2023/01/18 09:16:51;;;;;;;7.28;5.30;;;1.40;99.90;;;;;;7387884;19;20345;-80
2023/01/18 09:19:19;;;;;;;6.70;4.97;;;1.50;99.90;;;;;;7362811;19;20356;-79
2023/01/18 09:22:00;;;;;;;7.88;5.97;;;1.40;99.90;;;;;;7266324;19;2004546;-80
2023/01/18 09:27:56;;;;;;;9.25;5.45;;;1.30;99.90;;;;;;7373306;19;20295;-93
2023/01/18 09:30:45;;;;;;;9.82;5.95;;;1.40;99.90;;;;;;7392938;19;20331;-89
2023/01/18 09:33:12;;;;;;;8.33;6.07;;;1.30;99.90;;;;;;7365761;19;20308;-88
2023/01/18 09:35:39;;;;;;;7.55;6.32;;;1.30;99.90;;;;;;7398759;19;21189;-91
2023/01/18 09:38:06;;;;;;;8.05;5.95;;;1.30;99.90;;;;;;7400844;19;20342;-91
2023/01/18 09:40:42;;;;;;;10.93;6.45;;;1.40;99.90;;;;;;7402568;19;20859;-93
2023/01/18 09:43:25;;;;;;;9.90;6.45;;;1.30;99.90;;;;;;7404701;19;20300;-91
2023/01/18 09:45:51;;;;;;;6.82;5.28;;;1.20;99.90;;;;;;7405068;19;20356;-89
2023/01/18 09:48:27;;;;;;;8.70;6.53;;;1.30;99.90;;;;;;7404229;19;20309;-89
2023/01/18 09:50:59;;;;;;;9.57;7.07;;;1.30;99.90;;;;;;7404925;19;20317;-89
2023/01/18 09:53:47;;;;;;;8.35;6.57;;;1.30;99.90;;;;;;7295887;19;2004205;-91
2023/01/18 09:56:23;;;;;;;8.27;6.68;;;1.30;99.90;;;;;;7400076;19;20384;-92
2023/01/18 09:59:01;;;;;;;9.35;7.15;;;1.20;99.90;;;;;;7399838;19;20304;-87
2023/01/18 10:01:32;;;;;;;9.30;6.80;;;1.30;99.90;;;;;;7297437;19;2004179;-92
2023/01/18 10:04:05;;;;;;;12.07;8.50;;;1.30;99.90;;;;;;7401435;19;20308;-92
2023/01/18 10:07:01;;;;;;;11.60;7.72;;;1.30;99.90;;;;;;7404224;19;20332;-88
2023/01/18 10:09:38;;;;;;;7.38;6.22;;;1.40;99.90;;;;;;7298070;19;2004238;-91
2023/01/18 10:12:13;;;;;;;11.60;6.55;;;1.50;99.90;;;;;;7400292;19;20316;-91
2023/01/18 10:15:09;;;;;;;10.60;7.38;;;1.60;99.90;;;;;;7398030;19;20316;-90
2023/01/18 10:17:39;;;;;;;11.82;8.43;;;1.70;99.90;;;;;;7293859;19;2004224;-92
2023/01/18 10:20:12;;;;;;;9.93;6.90;;;1.80;99.90;;;;;;7398475;19;20940;-86
2023/01/18 10:22:50;;;;;;;10.68;7.80;;;1.80;99.90;;;;;;7402950;19;20309;-93
2023/01/18 10:25:35;;;;;;;9.88;6.95;;;1.80;99.90;;;;;;7403229;19;20331;-86
2023/01/18 10:28:50;;;;;;;9.67;7.10;;;1.80;99.90;;;;;;7302905;19;2004182;-95
2023/01/18 10:31:25;;;;;;;9.00;6.68;;;1.90;99.90;;;;;;7300027;19;2004204;-91
2023/01/18 10:33:54;;;;;;;11.20;7.50;;;1.90;99.90;;;;;;7408288;19;20344;-91
2023/01/18 10:36:31;;;;;;;12.02;7.70;;;2.00;99.90;;;;;;7411893;19;20288;-89
2023/01/18 10:39:03;;;;;;;11.50;6.90;;;1.90;99.90;;;;;;7309860;19;2004262;-92
2023/01/18 10:41:32;;;;;;;10.13;7.57;;;1.80;99.90;;;;;;7411241;19;20300;-87
2023/01/18 10:43:57;;;;;;;10.27;7.40;;;1.90;99.90;;;;;;7413654;19;20322;-92
2023/01/18 10:46:25;;;;;;;10.82;6.57;;;1.80;99.90;;;;;;7410358;19;20297;-94
2023/01/18 10:48:52;;;;;;;8.50;6.22;;;1.80;99.90;;;;;;7412985;19;20305;-92
2023/01/18 10:51:29;;;;;;;9.38;6.65;;;1.90;99.90;;;;;;7392095;19;20330;-89
2023/01/18 10:54:01;;;;;;;9.10;6.30;;;2.00;99.90;;;;;;7261616;19;2004223;-88
2023/01/18 10:56:30;;;;;;;12.48;7.20;;;2.00;99.90;;;;;;7380657;19;20332;-87
2023/01/18 10:59:04;;;;;;;11.40;7.45;;;2.10;99.90;;;;;;7417566;19;20364;-88
2023/01/18 11:01:34;;;;;;;8.48;6.13;;;2.00;99.90;;;;;;7415019;19;20341;-86
2023/01/18 11:04:19;;;;;;;12.18;6.72;;;1.90;99.90;;;;;;7414600;19;22652;-85
2023/01/18 11:06:51;;;;;;;9.75;7.65;;;2.00;99.90;;;;;;7413408;19;20305;-92
2023/01/18 11:09:50;;;;;;;7.28;5.95;;;2.00;99.90;;;;;;7408961;19;20878;-88
2023/01/18 11:12:39;;;;;;;10.23;6.80;;;2.00;99.90;;;;;;7292990;19;2004401;-89
2023/01/18 11:15:14;;;;;;;9.27;6.28;;;2.00;99.90;;;;;;7290772;19;2004249;-91
2023/01/18 11:17:53;;;;;;;8.40;6.47;;;2.00;99.90;;;;;;7393175;19;20404;-85
2023/01/18 11:20:46;;;;;;;12.68;7.18;;;2.00;99.90;;;;;;7392077;19;20337;-83
2023/01/18 11:23:28;;;;;;;8.73;6.20;;;1.90;99.90;;;;;;7292538;19;2004274;-84
2023/01/18 11:25:59;;;;;;;9.60;6.72;;;1.90;99.90;;;;;;7394338;19;20319;-86
2023/01/18 11:28:26;;;;;;;8.48;6.55;;;1.80;99.90;;;;;;7291170;19;2004518;-89
2023/01/18 11:31:04;;;;;;;7.00;5.60;;;1.80;99.90;;;;;;7394202;19;20416;-87
2023/01/18 11:33:30;;;;;;;12.00;8.13;;;1.90;99.90;;;;;;7292859;19;2004663;-83
2023/01/18 11:35:58;;;;;;;10.47;7.53;;;1.90;99.90;;;;;;7394679;19;20312;-91
2023/01/18 11:38:31;;;;;;;9.80;7.47;;;1.90;99.90;;;;;;7394245;19;20942;-80
2023/01/18 11:41:02;;;;;;;9.63;7.40;;;1.80;99.90;;;;;;7290943;19;2004272;-90
2023/01/18 11:43:27;;;;;;;10.23;7.90;;;1.80;99.90;;;;;;7393189;19;20655;-86
2023/01/18 11:46:18;;;;;;;13.73;8.80;;;1.70;99.90;;;;;;7398795;19;20296;-87
2023/01/18 11:48:49;;;;;;;10.77;7.53;;;1.70;99.90;;;;;;7298823;19;2004294;-93
2023/01/18 11:51:24;;;;;;;9.93;6.83;;;1.70;99.90;;;;;;7401560;19;20323;-88
2023/01/18 11:54:08;;;;;;;11.57;7.43;;;1.80;99.90;;;;;;7402718;19;20328;-80
2023/01/18 11:56:36;;;;;;;9.50;7.13;;;1.80;99.90;;;;;;7299010;19;2004241;-82
2023/01/18 11:59:02;;;;;;;12.17;9.07;;;1.80;99.90;;;;;;7403271;19;20317;-90
2023/01/18 12:01:55;;;;;;;9.70;7.30;;;1.70;99.90;;;;;;7398466;19;20392;-80
2023/01/18 12:04:27;;;;;;;10.90;7.35;;;1.70;99.90;;;;;;7401196;19;20297;-81
2023/01/18 12:07:38;;;;;;;8.70;7.03;;;1.70;99.90;;;;;;7400345;19;20845;-88
2023/01/18 12:10:06;;;;;;;9.68;6.47;;;1.70;99.90;;;;;;7194918;19;2004562;-89
2023/01/18 12:12:53;;;;;;;9.65;6.47;;;1.70;99.90;;;;;;7399737;19;20301;-84
2023/01/18 12:16:03;;;;;;;10.45;7.53;;;1.60;99.90;;;;;;7401039;19;20313;-79
2023/01/18 12:18:56;;;;;;;10.18;6.28;;;1.60;99.90;;;;;;7194532;19;2004511;-83
2023/01/18 12:21:59;;;;;;;10.48;7.53;;;1.70;99.90;;;;;;7398110;19;20312;-90
2023/01/18 12:24:51;;;;;;;10.48;6.93;;;1.50;99.90;;;;;;7194881;19;2004357;-92
2023/01/18 12:27:23;;;;;;;11.10;6.47;;;1.60;99.90;;;;;;7402736;19;20348;-84
2023/01/18 12:30:11;;;;;;;8.30;6.22;;;1.60;99.90;;;;;;7401797;19;20301;-85
2023/01/18 12:32:50;;;;;;;7.93;6.03;;;1.60;99.90;;;;;;7299709;19;2004196;-82
2023/01/18 12:35:25;;;;;;;10.20;7.15;;;1.60;99.90;;;;;;7402965;19;20305;-90
2023/01/18 12:38:10;;;;;;;8.90;7.10;;;1.80;99.90;;;;;;7401804;19;20380;-87
2023/01/18 12:40:58;;;;;;;10.55;7.90;;;1.70;99.90;;;;;;7299390;19;2004313;-83
2023/01/18 12:43:50;;;;;;;8.68;6.63;;;1.70;99.90;;;;;;7402195;19;20356;-84
2023/01/18 12:46:26;;;;;;;9.48;7.70;;;1.80;99.90;;;;;;7300374;19;2004267;-86
2023/01/18 12:48:57;;;;;;;11.40;8.32;;;1.80;99.90;;;;;;7402971;19;20413;-90
2023/01/18 12:51:25;;;;;;;11.85;7.93;;;1.90;99.90;;;;;;7401351;19;20410;-84
2023/01/18 12:53:59;;;;;;;9.80;7.28;;;1.80;99.90;;;;;;7403310;19;20737;-83
2023/01/18 12:56:28;;;;;;;11.35;7.43;;;1.80;99.90;;;;;;7298151;19;2004301;-85
2023/01/18 12:59:05;;;;;;;9.73;7.07;;;1.80;99.90;;;;;;7402465;19;20393;-82
2023/01/18 13:01:35;;;;;;;11.27;7.70;;;1.80;99.90;;;;;;7299664;19;2004319;-87
2023/01/18 13:04:13;;;;;;;7.95;6.45;;;1.70;99.90;;;;;;7401996;19;20311;-80
2023/01/18 13:06:38;;;;;;;8.80;6.47;;;1.70;99.90;;;;;;7402274;19;20332;-86
2023/01/18 13:09:08;;;;;;;11.23;7.20;;;1.70;99.90;;;;;;7403968;19;20362;-86
2023/01/18 13:11:40;;;;;;;9.02;6.68;;;1.70;99.90;;;;;;7400159;19;20317;-83
2023/01/18 13:14:27;;;;;;;9.65;7.25;;;1.70;99.90;;;;;;7403347;19;20329;-82
2023/01/18 13:17:02;;;;;;;10.43;6.75;;;1.80;99.90;;;;;;7403560;19;20399;-86
2023/01/18 13:19:35;;;;;;;11.55;8.05;;;1.80;99.90;;;;;;7301640;19;2004177;-78
2023/01/18 13:22:19;;;;;;;11.30;7.23;;;1.70;99.90;;;;;;7403261;19;20305;-83
2023/01/18 13:24:57;;;;;;;8.18;6.43;;;1.60;99.90;;;;;;7403768;19;20396;-85
2023/01/18 13:27:22;;;;;;;9.07;6.90;;;1.60;99.90;;;;;;7404621;19;20305;-81
2023/01/18 13:29:48;;;;;;;10.77;7.97;;;1.50;99.90;;;;;;7404608;19;20373;-81
2023/01/18 13:32:29;;;;;;;10.90;8.57;;;1.40;99.90;;;;;;7401547;19;20309;-81
2023/01/18 13:34:56;;;;;;;9.20;7.47;;;1.20;99.90;;;;;;7404470;19;20332;-85
2023/01/18 13:37:38;;;;;;;11.88;8.82;;;1.20;99.90;;;;;;7403425;19;20305;-81
2023/01/18 13:40:21;;;;;;;14.70;9.27;;;1.10;99.90;;;;;;7300894;19;2004316;-78
2023/01/18 13:42:46;;;;;;;12.68;9.13;;;1.00;99.90;;;;;;7404578;19;20316;-85
2023/01/18 13:45:19;;;;;;;13.15;9.65;;;1.00;99.90;;;;;;7404734;19;20722;-79
2023/01/18 13:47:56;;;;;;;12.48;9.02;;;1.00;99.90;;;;;;7401147;19;20312;-80
2023/01/18 13:50:38;;;;;;;10.38;8.27;;;1.00;99.90;;;;;;7400319;19;20321;-80
2023/01/18 13:53:12;;;;;;;8.68;7.18;;;1.10;99.90;;;;;;7301441;19;2004590;-82
2023/01/18 13:56:02;;;;;;;11.70;9.07;;;1.20;99.90;;;;;;7404834;19;20313;-79